Avondale, CO

11:48 AM MST on December 27, 2014 (GMT -0700)
Pueblo Memorial | Change Station
CLOSE
Current Station
Airport
Location: Pueblo,
Elevation: 4721 ft
Nearby Weather Stations

Elev 4721 ft 38.29 °N, 104.50 °W | Updated 55 minutes ago

Clear
Clear
24 °F
Feels Like 16 °F
N
7
Wind Variable Wind from WSW

Today
High -- | Low -- °F
--% Chance of Precip.
Yesterday
High -- | Low -- °F
Precip. -- in
7:12 AM 4:44 PM
Waxing Crescent, 39% visible
Pressure 30.35 in
Visibility 10.0 miles
Clouds Clear
Windchill 16 °F
Dew Point 11 °F
Humidity 57%
Rainfall 0.00 in
Snow Depth Not available.
UV 3 out of 12
Pollen .10 out of 12
Air Quality Not available.
Flu Activity Not available.
METAR KPUB 271753Z AUTO 25006KT 10SM CLR M04/M12 A3022 RMK AO2 SLP276 I6000 T10441117 11039 21161 58002

More Conditions Fewer Conditions

Pressure 30.35 in
Visibility 10.0 miles
Clouds Clear
Windchill 16 °F
Dew Point 11 °F
Humidity 57%
Rainfall 0.00 in
Snow Depth Not available.
UV 3 out of 12
Pollen .10 out of 12
Air Quality Not available.
Flu Activity Not available.
METAR KPUB 271753Z AUTO 25006KT 10SM CLR M04/M12 A3022 RMK AO2 SLP276 I6000 T10441117 11039 21161 58002

More Conditions Fewer Conditions

10-Day Weather Forecast

Almanac

Astronomy

Dec. 27, 2014 Rise Set
Actual Time
Civil Twilight
Nautical Twilight
Astronomical Twilight
Moon
Length of Visible Light
Length of Day
Tomorrow will be .
, % of the Moon is Illuminated

Today's Extremes

State Highs State Lows

Community

WunderPhotos

Upload Photos

1,780,988 photos uploaded!

WunderBlogs® & News

Nearby

Air Quality

  Air Quality AQ Index Pollutant
Not available.

Snow Depth

Station Depth Elevation

Earthquake Activity

City Distance Mag. Time & Date
Minimum magnitude displayed is 2.5.

Coastal Water Temperatures

Place Temperature

Nearby Weather Stations